Alton, New Hampshire
Current Conditions -  °F | °C
As of 1:15 AM on Saturday 01 Nov 2014 (Local Time) from KLCI Reporting Station
Clear Clear  
Wind Chill: 34°   Ceiling: Unl
Heat Index: 41°   Visibility: 10mi
Dew Point: 30°   Wind: 13mph
Humidity: 65%   Direction: 60°ENE
Pressure: 29.98"   Gusts: NA
Location:  43.45°N, 71.22°W
Report Text: KLCI 010515Z AUTO 06011KT 10SM CLR 05/M01 A2998 RMK AO1
Loading
Personal Weather Stations






























Interactive Weather Map
Tropical Storm Tracking
New forecast layout! Learn more

10-Day Weather Forecast

Advertisements
Track Severe Weather on mobile